sensor_id;sensor_type;location;lat;lon;timestamp;P1;durP1;ratioP1;P2;durP2;ratioP2
15132;SDS011;7667;51.232;17.110;2023-09-19T00:01:40;6.63;;;2.83;;
15132;SDS011;7667;51.232;17.110;2023-09-19T00:04:10;3.20;;;2.90;;
15132;SDS011;7667;51.232;17.110;2023-09-19T00:06:39;4.97;;;2.97;;
15132;SDS011;7667;51.232;17.110;2023-09-19T00:09:06;4.10;;;2.40;;
15132;SDS011;7667;51.232;17.110;2023-09-19T00:11:37;4.90;;;2.37;;
15132;SDS011;7667;51.232;17.110;2023-09-19T00:14:05;4.07;;;2.43;;
15132;SDS011;7667;51.232;17.110;2023-09-19T00:16:35;4.40;;;2.37;;
15132;SDS011;7667;51.232;17.110;2023-09-19T00:19:03;3.93;;;2.13;;
15132;SDS011;7667;51.232;17.110;2023-09-19T00:21:33;3.70;;;2.40;;
15132;SDS011;7667;51.232;17.110;2023-09-19T00:24:04;3.47;;;2.37;;
15132;SDS011;7667;51.232;17.110;2023-09-19T00:26:32;3.87;;;2.43;;
15132;SDS011;7667;51.232;17.110;2023-09-19T00:29:01;4.40;;;2.50;;
15132;SDS011;7667;51.232;17.110;2023-09-19T00:31:35;3.30;;;2.10;;
15132;SDS011;7667;51.232;17.110;2023-09-19T00:34:04;4.33;;;2.03;;
15132;SDS011;7667;51.232;17.110;2023-09-19T00:36:33;4.73;;;2.50;;
15132;SDS011;7667;51.232;17.110;2023-09-19T00:39:00;6.67;;;2.20;;
15132;SDS011;7667;51.232;17.110;2023-09-19T00:41:29;3.47;;;2.17;;
15132;SDS011;7667;51.232;17.110;2023-09-19T00:43:57;4.47;;;2.10;;
15132;SDS011;7667;51.232;17.110;2023-09-19T00:46:26;3.73;;;2.20;;
15132;SDS011;7667;51.232;17.110;2023-09-19T00:48:54;2.93;;;1.80;;
15132;SDS011;7667;51.232;17.110;2023-09-19T00:51:23;4.23;;;2.30;;
15132;SDS011;7667;51.232;17.110;2023-09-19T00:53:52;3.37;;;2.00;;
15132;SDS011;7667;51.232;17.110;2023-09-19T00:56:20;2.77;;;1.90;;
15132;SDS011;7667;51.232;17.110;2023-09-19T00:58:48;3.90;;;2.10;;
15132;SDS011;7667;51.232;17.110;2023-09-19T01:01:16;2.93;;;2.13;;
15132;SDS011;7667;51.232;17.110;2023-09-19T01:03:44;3.60;;;1.97;;
15132;SDS011;7667;51.232;17.110;2023-09-19T01:06:12;2.50;;;1.80;;
15132;SDS011;7667;51.232;17.110;2023-09-19T01:08:40;3.83;;;2.17;;
15132;SDS011;7667;51.232;17.110;2023-09-19T01:11:21;3.20;;;2.07;;
15132;SDS011;7667;51.232;17.110;2023-09-19T01:14:05;3.70;;;2.00;;
15132;SDS011;7667;51.232;17.110;2023-09-19T01:17:14;2.30;;;1.90;;
15132;SDS011;7667;51.232;17.110;2023-09-19T01:31:35;2.70;;;1.90;;
15132;SDS011;7667;51.232;17.110;2023-09-19T01:34:07;4.70;;;2.00;;
15132;SDS011;7667;51.232;17.110;2023-09-19T01:36:36;3.00;;;1.90;;
15132;SDS011;7667;51.232;17.110;2023-09-19T01:39:06;4.10;;;2.07;;
15132;SDS011;7667;51.232;17.110;2023-09-19T01:41:46;3.07;;;2.07;;
15132;SDS011;7667;51.232;17.110;2023-09-19T01:44:31;3.00;;;1.90;;
15132;SDS011;7667;51.232;17.110;2023-09-19T01:47:26;3.60;;;1.93;;
15132;SDS011;7667;51.232;17.110;2023-09-19T01:53:00;2.63;;;1.93;;
15132;SDS011;7667;51.232;17.110;2023-09-19T01:55:41;3.27;;;2.00;;
15132;SDS011;7667;51.232;17.110;2023-09-19T01:58:17;2.77;;;1.80;;
15132;SDS011;7667;51.232;17.110;2023-09-19T02:00:56;3.07;;;1.70;;
15132;SDS011;7667;51.232;17.110;2023-09-19T02:03:27;2.47;;;1.90;;
15132;SDS011;7667;51.232;17.110;2023-09-19T02:05:55;3.03;;;1.90;;
15132;SDS011;7667;51.232;17.110;2023-09-19T02:08:23;3.33;;;1.97;;
15132;SDS011;7667;51.232;17.110;2023-09-19T02:10:51;5.17;;;2.00;;
15132;SDS011;7667;51.232;17.110;2023-09-19T02:13:20;2.70;;;1.87;;
15132;SDS011;7667;51.232;17.110;2023-09-19T02:15:51;3.30;;;1.80;;
15132;SDS011;7667;51.232;17.110;2023-09-19T02:18:19;3.13;;;1.60;;
15132;SDS011;7667;51.232;17.110;2023-09-19T02:20:46;5.23;;;2.10;;
15132;SDS011;7667;51.232;17.110;2023-09-19T02:23:14;2.80;;;1.83;;
15132;SDS011;7667;51.232;17.110;2023-09-19T02:25:42;4.57;;;2.07;;
15132;SDS011;7667;51.232;17.110;2023-09-19T02:28:11;3.80;;;2.10;;
15132;SDS011;7667;51.232;17.110;2023-09-19T02:30:39;3.90;;;1.87;;
15132;SDS011;7667;51.232;17.110;2023-09-19T02:33:06;2.77;;;2.10;;
15132;SDS011;7667;51.232;17.110;2023-09-19T02:35:35;4.43;;;1.93;;
15132;SDS011;7667;51.232;17.110;2023-09-19T02:38:03;3.03;;;1.77;;
15132;SDS011;7667;51.232;17.110;2023-09-19T02:40:33;3.30;;;1.80;;
15132;SDS011;7667;51.232;17.110;2023-09-19T02:43:03;3.23;;;2.00;;
15132;SDS011;7667;51.232;17.110;2023-09-19T02:45:31;3.03;;;2.00;;
15132;SDS011;7667;51.232;17.110;2023-09-19T02:47:59;2.33;;;1.80;;
15132;SDS011;7667;51.232;17.110;2023-09-19T02:50:27;3.97;;;2.27;;
15132;SDS011;7667;51.232;17.110;2023-09-19T02:52:54;1.90;;;1.70;;
15132;SDS011;7667;51.232;17.110;2023-09-19T02:55:22;2.90;;;2.00;;
15132;SDS011;7667;51.232;17.110;2023-09-19T02:57:51;4.70;;;2.17;;
15132;SDS011;7667;51.232;17.110;2023-09-19T03:00:21;2.70;;;1.90;;
15132;SDS011;7667;51.232;17.110;2023-09-19T03:02:52;4.70;;;2.20;;
15132;SDS011;7667;51.232;17.110;2023-09-19T03:05:22;3.93;;;1.97;;
15132;SDS011;7667;51.232;17.110;2023-09-19T03:07:50;4.87;;;2.20;;
15132;SDS011;7667;51.232;17.110;2023-09-19T03:10:18;3.30;;;2.23;;
15132;SDS011;7667;51.232;17.110;2023-09-19T03:12:47;3.13;;;2.27;;
15132;SDS011;7667;51.232;17.110;2023-09-19T03:15:15;2.93;;;2.20;;
15132;SDS011;7667;51.232;17.110;2023-09-19T03:17:45;3.70;;;2.47;;
15132;SDS011;7667;51.232;17.110;2023-09-19T03:20:15;4.30;;;2.43;;
15132;SDS011;7667;51.232;17.110;2023-09-19T03:22:44;3.57;;;2.33;;
15132;SDS011;7667;51.232;17.110;2023-09-19T03:25:13;3.33;;;2.60;;
15132;SDS011;7667;51.232;17.110;2023-09-19T03:27:41;2.87;;;2.20;;
15132;SDS011;7667;51.232;17.110;2023-09-19T03:30:08;3.50;;;2.20;;
15132;SDS011;7667;51.232;17.110;2023-09-19T03:32:46;4.00;;;2.27;;
15132;SDS011;7667;51.232;17.110;2023-09-19T03:35:17;3.23;;;2.33;;
15132;SDS011;7667;51.232;17.110;2023-09-19T03:37:45;2.80;;;2.00;;
15132;SDS011;7667;51.232;17.110;2023-09-19T03:40:13;4.20;;;2.30;;
15132;SDS011;7667;51.232;17.110;2023-09-19T03:42:41;4.47;;;2.70;;
15132;SDS011;7667;51.232;17.110;2023-09-19T03:45:08;4.57;;;2.77;;
15132;SDS011;7667;51.232;17.110;2023-09-19T03:47:40;4.10;;;3.00;;
15132;SDS011;7667;51.232;17.110;2023-09-19T03:50:08;3.73;;;2.63;;
15132;SDS011;7667;51.232;17.110;2023-09-19T03:52:41;3.30;;;2.40;;
15132;SDS011;7667;51.232;17.110;2023-09-19T03:55:10;5.93;;;3.00;;
15132;SDS011;7667;51.232;17.110;2023-09-19T03:57:38;5.47;;;2.80;;
15132;SDS011;7667;51.232;17.110;2023-09-19T04:00:05;3.30;;;2.40;;
15132;SDS011;7667;51.232;17.110;2023-09-19T04:02:39;4.37;;;2.67;;
15132;SDS011;7667;51.232;17.110;2023-09-19T04:05:08;2.83;;;2.60;;
15132;SDS011;7667;51.232;17.110;2023-09-19T04:07:36;4.00;;;2.57;;
15132;SDS011;7667;51.232;17.110;2023-09-19T04:10:04;3.37;;;2.57;;
15132;SDS011;7667;51.232;17.110;2023-09-19T04:12:33;4.20;;;3.20;;
15132;SDS011;7667;51.232;17.110;2023-09-19T04:15:00;3.83;;;2.83;;
15132;SDS011;7667;51.232;17.110;2023-09-19T04:17:29;3.80;;;3.07;;
15132;SDS011;7667;51.232;17.110;2023-09-19T04:19:56;5.10;;;3.17;;
15132;SDS011;7667;51.232;17.110;2023-09-19T04:22:24;4.17;;;2.90;;
15132;SDS011;7667;51.232;17.110;2023-09-19T04:24:52;4.27;;;3.00;;
15132;SDS011;7667;51.232;17.110;2023-09-19T04:27:19;4.43;;;3.20;;
15132;SDS011;7667;51.232;17.110;2023-09-19T04:29:47;4.00;;;3.00;;
15132;SDS011;7667;51.232;17.110;2023-09-19T04:32:14;3.77;;;3.03;;
15132;SDS011;7667;51.232;17.110;2023-09-19T04:34:43;4.07;;;2.90;;
15132;SDS011;7667;51.232;17.110;2023-09-19T04:37:11;5.77;;;3.00;;
15132;SDS011;7667;51.232;17.110;2023-09-19T04:39:41;3.70;;;2.77;;
15132;SDS011;7667;51.232;17.110;2023-09-19T04:42:09;4.70;;;2.90;;
15132;SDS011;7667;51.232;17.110;2023-09-19T04:44:41;4.40;;;2.80;;
15132;SDS011;7667;51.232;17.110;2023-09-19T04:47:09;4.00;;;3.10;;
15132;SDS011;7667;51.232;17.110;2023-09-19T04:49:39;5.30;;;3.00;;
15132;SDS011;7667;51.232;17.110;2023-09-19T04:52:06;3.43;;;2.70;;
15132;SDS011;7667;51.232;17.110;2023-09-19T04:54:34;3.10;;;2.57;;
15132;SDS011;7667;51.232;17.110;2023-09-19T04:57:01;4.73;;;2.93;;
15132;SDS011;7667;51.232;17.110;2023-09-19T04:59:29;4.73;;;3.03;;
15132;SDS011;7667;51.232;17.110;2023-09-19T05:01:58;3.53;;;2.70;;
15132;SDS011;7667;51.232;17.110;2023-09-19T05:04:26;4.20;;;3.27;;
15132;SDS011;7667;51.232;17.110;2023-09-19T05:06:54;3.80;;;3.30;;
15132;SDS011;7667;51.232;17.110;2023-09-19T05:09:21;5.40;;;3.60;;
15132;SDS011;7667;51.232;17.110;2023-09-19T05:11:49;6.03;;;4.00;;
15132;SDS011;7667;51.232;17.110;2023-09-19T05:14:18;6.33;;;4.40;;
15132;SDS011;7667;51.232;17.110;2023-09-19T05:16:46;6.00;;;4.87;;
15132;SDS011;7667;51.232;17.110;2023-09-19T05:19:14;5.73;;;5.07;;
15132;SDS011;7667;51.232;17.110;2023-09-19T05:21:41;6.90;;;4.77;;
15132;SDS011;7667;51.232;17.110;2023-09-19T05:24:09;6.37;;;5.77;;
15132;SDS011;7667;51.232;17.110;2023-09-19T05:26:39;8.37;;;5.47;;
15132;SDS011;7667;51.232;17.110;2023-09-19T05:29:06;5.80;;;5.20;;
15132;SDS011;7667;51.232;17.110;2023-09-19T05:31:34;6.47;;;5.30;;
15132;SDS011;7667;51.232;17.110;2023-09-19T05:34:06;5.70;;;4.77;;
15132;SDS011;7667;51.232;17.110;2023-09-19T05:36:33;5.37;;;4.30;;
15132;SDS011;7667;51.232;17.110;2023-09-19T05:39:01;5.57;;;4.47;;
15132;SDS011;7667;51.232;17.110;2023-09-19T05:41:29;5.90;;;4.37;;
15132;SDS011;7667;51.232;17.110;2023-09-19T05:43:57;5.37;;;4.13;;
15132;SDS011;7667;51.232;17.110;2023-09-19T05:46:29;6.73;;;5.00;;
15132;SDS011;7667;51.232;17.110;2023-09-19T05:48:57;6.67;;;4.93;;
15132;SDS011;7667;51.232;17.110;2023-09-19T05:51:25;6.27;;;5.10;;
15132;SDS011;7667;51.232;17.110;2023-09-19T05:53:55;7.17;;;5.40;;
15132;SDS011;7667;51.232;17.110;2023-09-19T05:56:24;6.30;;;5.07;;
15132;SDS011;7667;51.232;17.110;2023-09-19T05:58:51;7.80;;;5.10;;
15132;SDS011;7667;51.232;17.110;2023-09-19T06:01:20;8.40;;;5.33;;
15132;SDS011;7667;51.232;17.110;2023-09-19T06:03:48;6.70;;;5.13;;
15132;SDS011;7667;51.232;17.110;2023-09-19T06:06:15;6.30;;;4.93;;
15132;SDS011;7667;51.232;17.110;2023-09-19T06:08:43;6.53;;;5.17;;
15132;SDS011;7667;51.232;17.110;2023-09-19T06:11:13;10.50;;;5.10;;
15132;SDS011;7667;51.232;17.110;2023-09-19T06:13:41;6.70;;;5.10;;
15132;SDS011;7667;51.232;17.110;2023-09-19T06:16:09;5.93;;;4.77;;
15132;SDS011;7667;51.232;17.110;2023-09-19T06:18:36;8.00;;;4.77;;
15132;SDS011;7667;51.232;17.110;2023-09-19T06:21:04;6.93;;;4.40;;
15132;SDS011;7667;51.232;17.110;2023-09-19T06:23:34;5.93;;;4.23;;
15132;SDS011;7667;51.232;17.110;2023-09-19T06:26:02;6.40;;;3.80;;
15132;SDS011;7667;51.232;17.110;2023-09-19T06:28:33;5.90;;;3.83;;
15132;SDS011;7667;51.232;17.110;2023-09-19T06:31:03;5.00;;;3.30;;
15132;SDS011;7667;51.232;17.110;2023-09-19T06:33:37;5.27;;;3.30;;
15132;SDS011;7667;51.232;17.110;2023-09-19T06:36:07;4.37;;;2.97;;
15132;SDS011;7667;51.232;17.110;2023-09-19T06:38:35;3.83;;;2.80;;
15132;SDS011;7667;51.232;17.110;2023-09-19T06:41:04;3.83;;;2.70;;
15132;SDS011;7667;51.232;17.110;2023-09-19T06:43:32;3.20;;;2.50;;
15132;SDS011;7667;51.232;17.110;2023-09-19T06:46:01;3.17;;;2.30;;
15132;SDS011;7667;51.232;17.110;2023-09-19T06:48:29;5.00;;;2.43;;
15132;SDS011;7667;51.232;17.110;2023-09-19T06:50:56;4.23;;;2.30;;
15132;SDS011;7667;51.232;17.110;2023-09-19T06:53:25;4.97;;;2.50;;
15132;SDS011;7667;51.232;17.110;2023-09-19T06:55:52;3.37;;;2.50;;
15132;SDS011;7667;51.232;17.110;2023-09-19T06:58:21;4.50;;;2.20;;
15132;SDS011;7667;51.232;17.110;2023-09-19T07:00:48;3.40;;;2.17;;
15132;SDS011;7667;51.232;17.110;2023-09-19T07:03:17;3.73;;;2.10;;
15132;SDS011;7667;51.232;17.110;2023-09-19T07:05:47;3.53;;;2.40;;
15132;SDS011;7667;51.232;17.110;2023-09-19T07:08:15;4.60;;;2.17;;
15132;SDS011;7667;51.232;17.110;2023-09-19T07:10:43;3.63;;;2.30;;
15132;SDS011;7667;51.232;17.110;2023-09-19T07:13:16;6.27;;;2.30;;
15132;SDS011;7667;51.232;17.110;2023-09-19T07:15:44;4.20;;;2.40;;
15132;SDS011;7667;51.232;17.110;2023-09-19T07:18:17;4.40;;;2.23;;
15132;SDS011;7667;51.232;17.110;2023-09-19T07:20:45;3.50;;;2.20;;
15132;SDS011;7667;51.232;17.110;2023-09-19T07:23:17;3.50;;;2.23;;
15132;SDS011;7667;51.232;17.110;2023-09-19T07:25:44;4.67;;;2.13;;
15132;SDS011;7667;51.232;17.110;2023-09-19T07:28:13;2.97;;;2.37;;
15132;SDS011;7667;51.232;17.110;2023-09-19T07:30:41;2.83;;;2.10;;
15132;SDS011;7667;51.232;17.110;2023-09-19T07:33:08;3.33;;;2.27;;
15132;SDS011;7667;51.232;17.110;2023-09-19T07:35:39;3.60;;;2.57;;
15132;SDS011;7667;51.232;17.110;2023-09-19T07:38:08;4.00;;;2.37;;
15132;SDS011;7667;51.232;17.110;2023-09-19T07:40:38;4.20;;;2.30;;
15132;SDS011;7667;51.232;17.110;2023-09-19T07:43:06;2.30;;;2.03;;
15132;SDS011;7667;51.232;17.110;2023-09-19T07:45:35;4.23;;;2.00;;
15132;SDS011;7667;51.232;17.110;2023-09-19T07:48:03;2.87;;;2.20;;
15132;SDS011;7667;51.232;17.110;2023-09-19T07:50:33;2.90;;;2.20;;
15132;SDS011;7667;51.232;17.110;2023-09-19T07:53:04;2.83;;;2.00;;
15132;SDS011;7667;51.232;17.110;2023-09-19T07:55:32;4.77;;;2.40;;
15132;SDS011;7667;51.232;17.110;2023-09-19T07:58:01;3.93;;;2.07;;
15132;SDS011;7667;51.232;17.110;2023-09-19T08:00:30;3.37;;;1.90;;
15132;SDS011;7667;51.232;17.110;2023-09-19T08:03:01;3.30;;;2.00;;
15132;SDS011;7667;51.232;17.110;2023-09-19T08:05:41;2.87;;;1.77;;
15132;SDS011;7667;51.232;17.110;2023-09-19T08:08:12;2.20;;;2.00;;
15132;SDS011;7667;51.232;17.110;2023-09-19T08:10:42;2.20;;;1.83;;
15132;SDS011;7667;51.232;17.110;2023-09-19T08:13:13;2.47;;;1.80;;
15132;SDS011;7667;51.232;17.110;2023-09-19T08:15:44;2.90;;;1.80;;
15132;SDS011;7667;51.232;17.110;2023-09-19T08:18:13;3.17;;;1.80;;
15132;SDS011;7667;51.232;17.110;2023-09-19T08:20:42;2.97;;;1.90;;
15132;SDS011;7667;51.232;17.110;2023-09-19T08:23:13;2.20;;;1.70;;
15132;SDS011;7667;51.232;17.110;2023-09-19T08:25:40;3.50;;;1.87;;
15132;SDS011;7667;51.232;17.110;2023-09-19T08:28:08;2.33;;;1.80;;
15132;SDS011;7667;51.232;17.110;2023-09-19T08:30:38;2.07;;;1.63;;
15132;SDS011;7667;51.232;17.110;2023-09-19T08:33:07;2.43;;;1.70;;
15132;SDS011;7667;51.232;17.110;2023-09-19T08:35:35;2.97;;;1.83;;
15132;SDS011;7667;51.232;17.110;2023-09-19T08:38:04;4.23;;;2.00;;
15132;SDS011;7667;51.232;17.110;2023-09-19T08:40:34;2.03;;;1.70;;
15132;SDS011;7667;51.232;17.110;2023-09-19T08:43:06;2.60;;;2.00;;
15132;SDS011;7667;51.232;17.110;2023-09-19T08:45:35;3.17;;;1.73;;
15132;SDS011;7667;51.232;17.110;2023-09-19T08:48:17;3.27;;;1.80;;
15132;SDS011;7667;51.232;17.110;2023-09-19T08:50:58;3.00;;;1.73;;
15132;SDS011;7667;51.232;17.110;2023-09-19T08:56:40;2.60;;;1.70;;
15132;SDS011;7667;51.232;17.110;2023-09-19T08:59:10;2.80;;;1.83;;
15132;SDS011;7667;51.232;17.110;2023-09-19T09:01:38;3.13;;;1.70;;
15132;SDS011;7667;51.232;17.110;2023-09-19T09:04:08;3.08;;;1.77;;
15132;SDS011;7667;51.232;17.110;2023-09-19T09:06:40;2.63;;;1.50;;
15132;SDS011;7667;51.232;17.110;2023-09-19T09:09:10;3.50;;;1.80;;
15132;SDS011;7667;51.232;17.110;2023-09-19T09:11:38;2.33;;;1.50;;
15132;SDS011;7667;51.232;17.110;2023-09-19T09:14:06;2.90;;;1.55;;
15132;SDS011;7667;51.232;17.110;2023-09-19T09:16:34;1.73;;;1.43;;
15132;SDS011;7667;51.232;17.110;2023-09-19T09:19:02;2.40;;;1.80;;
15132;SDS011;7667;51.232;17.110;2023-09-19T09:21:30;1.83;;;1.63;;
15132;SDS011;7667;51.232;17.110;2023-09-19T09:24:25;2.47;;;1.60;;
15132;SDS011;7667;51.232;17.110;2023-09-19T09:27:02;2.33;;;1.70;;
15132;SDS011;7667;51.232;17.110;2023-09-19T09:29:43;2.87;;;1.50;;
15132;SDS011;7667;51.232;17.110;2023-09-19T09:32:22;3.17;;;1.63;;
15132;SDS011;7667;51.232;17.110;2023-09-19T09:35:08;2.53;;;1.70;;
15132;SDS011;7667;51.232;17.110;2023-09-19T09:37:37;3.50;;;1.67;;
15132;SDS011;7667;51.232;17.110;2023-09-19T09:40:05;1.95;;;1.60;;
15132;SDS011;7667;51.232;17.110;2023-09-19T09:42:42;3.20;;;1.50;;
15132;SDS011;7667;51.232;17.110;2023-09-19T09:45:17;6.90;;;1.75;;
15132;SDS011;7667;51.232;17.110;2023-09-19T09:47:55;4.72;;;1.60;;
15132;SDS011;7667;51.232;17.110;2023-09-19T09:50:30;2.83;;;1.50;;
15132;SDS011;7667;51.232;17.110;2023-09-19T09:53:27;2.28;;;1.27;;
15132;SDS011;7667;51.232;17.110;2023-09-19T09:56:01;3.08;;;1.58;;
15132;SDS011;7667;51.232;17.110;2023-09-19T09:58:33;9.45;;;2.30;;
15132;SDS011;7667;51.232;17.110;2023-09-19T10:01:16;1.95;;;1.40;;
15132;SDS011;7667;51.232;17.110;2023-09-19T10:03:44;2.78;;;1.58;;
15132;SDS011;7667;51.232;17.110;2023-09-19T10:06:16;1.52;;;1.27;;
15132;SDS011;7667;51.232;17.110;2023-09-19T10:09:06;2.20;;;1.48;;
15132;SDS011;7667;51.232;17.110;2023-09-19T10:11:46;2.20;;;1.35;;
15132;SDS011;7667;51.232;17.110;2023-09-19T10:14:24;2.20;;;1.38;;
15132;SDS011;7667;51.232;17.110;2023-09-19T10:16:59;2.78;;;1.55;;
15132;SDS011;7667;51.232;17.110;2023-09-19T10:19:37;1.50;;;1.40;;
15132;SDS011;7667;51.232;17.110;2023-09-19T10:22:14;3.42;;;1.45;;
15132;SDS011;7667;51.232;17.110;2023-09-19T10:24:47;2.92;;;1.42;;
15132;SDS011;7667;51.232;17.110;2023-09-19T10:27:28;2.25;;;1.38;;
15132;SDS011;7667;51.232;17.110;2023-09-19T10:30:06;3.38;;;1.60;;
15132;SDS011;7667;51.232;17.110;2023-09-19T10:32:36;3.28;;;1.45;;
15132;SDS011;7667;51.232;17.110;2023-09-19T10:35:08;1.55;;;1.30;;
15132;SDS011;7667;51.232;17.110;2023-09-19T10:37:40;1.90;;;1.50;;
15132;SDS011;7667;51.232;17.110;2023-09-19T10:40:11;1.52;;;1.17;;
15132;SDS011;7667;51.232;17.110;2023-09-19T10:42:40;2.05;;;1.52;;
15132;SDS011;7667;51.232;17.110;2023-09-19T10:45:09;3.22;;;1.27;;
15132;SDS011;7667;51.232;17.110;2023-09-19T10:47:40;1.73;;;1.40;;
15132;SDS011;7667;51.232;17.110;2023-09-19T10:50:08;1.90;;;1.40;;
15132;SDS011;7667;51.232;17.110;2023-09-19T10:52:39;1.73;;;1.40;;
15132;SDS011;7667;51.232;17.110;2023-09-19T10:55:09;3.03;;;1.52;;
15132;SDS011;7667;51.232;17.110;2023-09-19T10:57:45;2.97;;;1.70;;
15132;SDS011;7667;51.232;17.110;2023-09-19T11:00:15;2.00;;;1.50;;
15132;SDS011;7667;51.232;17.110;2023-09-19T11:05:41;2.53;;;1.50;;
15132;SDS011;7667;51.232;17.110;2023-09-19T11:08:10;2.55;;;1.50;;
15132;SDS011;7667;51.232;17.110;2023-09-19T11:10:46;2.22;;;1.15;;
15132;SDS011;7667;51.232;17.110;2023-09-19T11:26:49;3.00;;;1.60;;
15132;SDS011;7667;51.232;17.110;2023-09-19T11:29:24;2.97;;;1.27;;
15132;SDS011;7667;51.232;17.110;2023-09-19T11:31:56;2.28;;;1.15;;
15132;SDS011;7667;51.232;17.110;2023-09-19T11:39:38;3.05;;;1.15;;
15132;SDS011;7667;51.232;17.110;2023-09-19T11:48:18;2.13;;;1.38;;
15132;SDS011;7667;51.232;17.110;2023-09-19T11:50:46;2.17;;;1.13;;
15132;SDS011;7667;51.232;17.110;2023-09-19T11:53:17;1.63;;;1.00;;
15132;SDS011;7667;51.232;17.110;2023-09-19T11:55:46;2.25;;;1.13;;
15132;SDS011;7667;51.232;17.110;2023-09-19T11:58:15;1.35;;;1.17;;
15132;SDS011;7667;51.232;17.110;2023-09-19T12:00:43;1.63;;;1.10;;
15132;SDS011;7667;51.232;17.110;2023-09-19T12:03:12;3.83;;;1.05;;
15132;SDS011;7667;51.232;17.110;2023-09-19T12:05:45;2.55;;;1.15;;
15132;SDS011;7667;51.232;17.110;2023-09-19T12:08:14;1.20;;;0.93;;
15132;SDS011;7667;51.232;17.110;2023-09-19T12:10:53;1.65;;;1.17;;
15132;SDS011;7667;51.232;17.110;2023-09-19T12:13:22;2.30;;;1.10;;
15132;SDS011;7667;51.232;17.110;2023-09-19T12:15:49;2.38;;;1.00;;
15132;SDS011;7667;51.232;17.110;2023-09-19T12:18:27;2.25;;;1.05;;
15132;SDS011;7667;51.232;17.110;2023-09-19T12:20:58;4.00;;;1.10;;
15132;SDS011;7667;51.232;17.110;2023-09-19T12:23:25;3.30;;;1.10;;
15132;SDS011;7667;51.232;17.110;2023-09-19T12:25:54;1.30;;;1.00;;
15132;SDS011;7667;51.232;17.110;2023-09-19T12:28:25;2.45;;;1.15;;
15132;SDS011;7667;51.232;17.110;2023-09-19T12:31:07;2.03;;;1.23;;
15132;SDS011;7667;51.232;17.110;2023-09-19T12:33:35;2.08;;;1.10;;
15132;SDS011;7667;51.232;17.110;2023-09-19T12:36:25;1.35;;;0.95;;
15132;SDS011;7667;51.232;17.110;2023-09-19T12:38:58;2.47;;;1.13;;
15132;SDS011;7667;51.232;17.110;2023-09-19T12:41:26;1.23;;;1.13;;
15132;SDS011;7667;51.232;17.110;2023-09-19T12:43:54;1.20;;;1.00;;
15132;SDS011;7667;51.232;17.110;2023-09-19T12:46:22;3.15;;;0.95;;
15132;SDS011;7667;51.232;17.110;2023-09-19T12:51:46;2.75;;;1.38;;
15132;SDS011;7667;51.232;17.110;2023-09-19T12:54:14;1.40;;;1.10;;
15132;SDS011;7667;51.232;17.110;2023-09-19T12:56:46;0.98;;;0.90;;
15132;SDS011;7667;51.232;17.110;2023-09-19T12:59:15;1.58;;;1.02;;
15132;SDS011;7667;51.232;17.110;2023-09-19T13:01:43;3.60;;;1.27;;
15132;SDS011;7667;51.232;17.110;2023-09-19T13:04:20;2.10;;;1.10;;
15132;SDS011;7667;51.232;17.110;2023-09-19T13:06:56;1.00;;;0.90;;
15132;SDS011;7667;51.232;17.110;2023-09-19T13:09:28;1.80;;;1.00;;
15132;SDS011;7667;51.232;17.110;2023-09-19T13:12:02;1.35;;;1.00;;
15132;SDS011;7667;51.232;17.110;2023-09-19T13:14:31;2.25;;;0.90;;
15132;SDS011;7667;51.232;17.110;2023-09-19T13:17:01;1.85;;;0.90;;
15132;SDS011;7667;51.232;17.110;2023-09-19T13:19:54;1.67;;;1.27;;
15132;SDS011;7667;51.232;17.110;2023-09-19T13:25:15;1.98;;;1.00;;
15132;SDS011;7667;51.232;17.110;2023-09-19T13:27:52;1.25;;;0.95;;
15132;SDS011;7667;51.232;17.110;2023-09-19T13:30:23;1.33;;;0.90;;
15132;SDS011;7667;51.232;17.110;2023-09-19T13:33:04;2.15;;;1.02;;
15132;SDS011;7667;51.232;17.110;2023-09-19T13:35:41;1.15;;;1.00;;
15132;SDS011;7667;51.232;17.110;2023-09-19T13:38:08;2.67;;;1.00;;
15132;SDS011;7667;51.232;17.110;2023-09-19T13:40:36;1.27;;;1.00;;
15132;SDS011;7667;51.232;17.110;2023-09-19T13:43:06;1.42;;;0.90;;
15132;SDS011;7667;51.232;17.110;2023-09-19T13:45:34;0.80;;;0.80;;
15132;SDS011;7667;51.232;17.110;2023-09-19T13:48:03;1.35;;;0.80;;
15132;SDS011;7667;51.232;17.110;2023-09-19T13:50:31;1.60;;;1.10;;
15132;SDS011;7667;51.232;17.110;2023-09-19T13:52:59;1.73;;;0.88;;
15132;SDS011;7667;51.232;17.110;2023-09-19T13:55:27;0.90;;;0.68;;
15132;SDS011;7667;51.232;17.110;2023-09-19T13:57:55;3.78;;;0.90;;
15132;SDS011;7667;51.232;17.110;2023-09-19T14:00:24;1.85;;;0.85;;
15132;SDS011;7667;51.232;17.110;2023-09-19T14:02:51;1.00;;;0.80;;
15132;SDS011;7667;51.232;17.110;2023-09-19T14:05:19;2.63;;;0.80;;
15132;SDS011;7667;51.232;17.110;2023-09-19T14:07:47;1.35;;;0.95;;
15132;SDS011;7667;51.232;17.110;2023-09-19T14:10:15;2.05;;;0.90;;
15132;SDS011;7667;51.232;17.110;2023-09-19T14:12:44;1.00;;;0.80;;
15132;SDS011;7667;51.232;17.110;2023-09-19T14:15:12;0.98;;;0.85;;
15132;SDS011;7667;51.232;17.110;2023-09-19T14:17:40;1.33;;;0.80;;
15132;SDS011;7667;51.232;17.110;2023-09-19T14:20:09;1.05;;;0.70;;
15132;SDS011;7667;51.232;17.110;2023-09-19T14:22:37;2.85;;;0.90;;
15132;SDS011;7667;51.232;17.110;2023-09-19T14:25:05;1.75;;;0.93;;
15132;SDS011;7667;51.232;17.110;2023-09-19T14:27:33;2.33;;;1.00;;
15132;SDS011;7667;51.232;17.110;2023-09-19T14:30:01;1.30;;;1.08;;
15132;SDS011;7667;51.232;17.110;2023-09-19T14:32:28;1.10;;;0.90;;
15132;SDS011;7667;51.232;17.110;2023-09-19T14:34:56;1.35;;;1.05;;
15132;SDS011;7667;51.232;17.110;2023-09-19T14:37:23;1.55;;;1.00;;
15132;SDS011;7667;51.232;17.110;2023-09-19T14:39:51;2.30;;;0.90;;
15132;SDS011;7667;51.232;17.110;2023-09-19T14:42:18;1.10;;;1.00;;
15132;SDS011;7667;51.232;17.110;2023-09-19T14:44:46;1.13;;;0.80;;
15132;SDS011;7667;51.232;17.110;2023-09-19T14:47:15;1.55;;;1.00;;
15132;SDS011;7667;51.232;17.110;2023-09-19T14:49:43;3.20;;;0.90;;
15132;SDS011;7667;51.232;17.110;2023-09-19T14:52:11;1.05;;;0.90;;
15132;SDS011;7667;51.232;17.110;2023-09-19T14:54:42;4.05;;;1.10;;
15132;SDS011;7667;51.232;17.110;2023-09-19T14:57:10;1.52;;;1.05;;
15132;SDS011;7667;51.232;17.110;2023-09-19T14:59:40;1.48;;;1.00;;
15132;SDS011;7667;51.232;17.110;2023-09-19T15:02:08;0.90;;;0.80;;
15132;SDS011;7667;51.232;17.110;2023-09-19T15:04:35;1.35;;;0.95;;
15132;SDS011;7667;51.232;17.110;2023-09-19T15:07:08;1.35;;;0.90;;
15132;SDS011;7667;51.232;17.110;2023-09-19T15:09:35;1.48;;;1.10;;
15132;SDS011;7667;51.232;17.110;2023-09-19T15:12:03;1.55;;;1.08;;
15132;SDS011;7667;51.232;17.110;2023-09-19T15:14:31;1.02;;;0.93;;
15132;SDS011;7667;51.232;17.110;2023-09-19T15:16:59;2.40;;;0.90;;
15132;SDS011;7667;51.232;17.110;2023-09-19T15:19:27;1.35;;;0.80;;
15132;SDS011;7667;51.232;17.110;2023-09-19T15:21:54;2.50;;;0.90;;
15132;SDS011;7667;51.232;17.110;2023-09-19T15:24:22;3.10;;;1.10;;
15132;SDS011;7667;51.232;17.110;2023-09-19T15:26:49;2.42;;;1.15;;
15132;SDS011;7667;51.232;17.110;2023-09-19T15:29:17;2.45;;;1.00;;
15132;SDS011;7667;51.232;17.110;2023-09-19T15:31:46;1.42;;;1.00;;
15132;SDS011;7667;51.232;17.110;2023-09-19T15:34:14;1.33;;;1.00;;
15132;SDS011;7667;51.232;17.110;2023-09-19T15:36:42;2.42;;;0.90;;
15132;SDS011;7667;51.232;17.110;2023-09-19T15:39:11;1.15;;;1.05;;
15132;SDS011;7667;51.232;17.110;2023-09-19T15:41:39;3.90;;;1.05;;
15132;SDS011;7667;51.232;17.110;2023-09-19T15:44:18;2.00;;;0.93;;
15132;SDS011;7667;51.232;17.110;2023-09-19T15:46:46;1.77;;;1.00;;
15132;SDS011;7667;51.232;17.110;2023-09-19T15:49:14;1.70;;;0.98;;
15132;SDS011;7667;51.232;17.110;2023-09-19T15:51:42;2.45;;;1.17;;
15132;SDS011;7667;51.232;17.110;2023-09-19T15:54:11;2.17;;;0.90;;
15132;SDS011;7667;51.232;17.110;2023-09-19T15:56:43;1.55;;;1.10;;
15132;SDS011;7667;51.232;17.110;2023-09-19T15:59:13;1.15;;;1.00;;